Time;durP1;ratioP1;P1;durP2;ratioP2;P2;SDS_P1;SDS_P2;PMS_P1;PMS_P2;Temp;Humidity;BMP_temperature;BMP_pressure;BME280_temperature;BME280_humidity;BME280_pressure;Samples;Min_cycle;Max_cycle;Signal;HPM_P1;HPM_P2
2023/04/29 00:01:34;;;;;;;2.83;2.63;;;13.80;99.90;;;;;;5056553;28;20403;-81
2023/04/29 00:03:59;;;;;;;3.80;2.70;;;13.90;99.90;;;;;;5056527;28;20384;-81
2023/04/29 00:06:25;;;;;;;3.70;2.80;;;13.80;99.90;;;;;;5073525;28;20462;-81
2023/04/29 00:08:51;;;;;;;3.50;2.60;;;13.80;99.90;;;;;;5054613;28;20395;-80
2023/04/29 00:11:16;;;;;;;4.18;2.70;;;13.80;99.90;;;;;;5055026;28;20384;-80
2023/04/29 00:13:42;;;;;;;4.60;2.70;;;13.80;99.90;;;;;;5055109;28;20390;-80
2023/04/29 00:16:09;;;;;;;3.00;2.50;;;13.70;99.90;;;;;;5054228;28;20765;-80
2023/04/29 00:18:36;;;;;;;5.80;2.83;;;13.70;99.90;;;;;;5055025;28;20746;-80
2023/04/29 00:21:01;;;;;;;2.70;2.50;;;13.70;99.90;;;;;;5073429;28;20403;-80
2023/04/29 00:23:27;;;;;;;3.05;2.50;;;13.70;99.90;;;;;;5054996;28;20404;-80
2023/04/29 00:25:52;;;;;;;2.58;2.38;;;13.60;99.90;;;;;;5076503;28;20384;-80
2023/04/29 00:28:19;;;;;;;4.37;2.80;;;13.60;99.90;;;;;;5080539;28;20406;-81
2023/04/29 00:30:44;;;;;;;2.42;2.22;;;13.60;99.90;;;;;;5081854;28;20414;-80
2023/04/29 00:33:10;;;;;;;3.07;2.60;;;13.50;99.90;;;;;;5076519;28;20380;-80
2023/04/29 00:35:35;;;;;;;4.10;3.03;;;13.50;99.90;;;;;;5076220;28;20376;-81
2023/04/29 00:38:03;;;;;;;3.97;2.50;;;13.50;99.90;;;;;;5058267;28;20877;-81
2023/04/29 00:40:29;;;;;;;3.72;2.78;;;13.50;99.90;;;;;;5058153;28;20474;-81
2023/04/29 00:42:54;;;;;;;3.87;2.53;;;13.50;99.90;;;;;;5058500;28;20492;-81
2023/04/29 00:45:20;;;;;;;4.60;3.10;;;13.50;99.90;;;;;;5075623;28;20380;-81
2023/04/29 00:47:46;;;;;;;3.73;2.73;;;13.60;99.90;;;;;;5076466;28;20458;-80
2023/04/29 00:50:12;;;;;;;3.90;3.35;;;13.60;99.90;;;;;;5058595;28;20403;-80
2023/04/29 00:52:38;;;;;;;4.82;2.90;;;13.60;99.90;;;;;;5058587;28;20759;-80
2023/04/29 00:55:09;;;;;;;2.75;2.40;;;13.60;99.90;;;;;;5058011;28;20403;-80
2023/04/29 00:57:34;;;;;;;2.70;2.50;;;13.60;99.90;;;;;;5075648;28;20723;-81
2023/04/29 01:00:03;;;;;;;4.80;2.90;;;13.50;99.90;;;;;;5057691;28;20453;-81
2023/04/29 01:02:28;;;;;;;3.50;2.70;;;14.50;99.90;;;;;;5057390;28;20387;-80
2023/04/29 01:04:54;;;;;;;2.67;2.40;;;13.50;99.90;;;;;;5076110;28;20723;-80
2023/04/29 01:07:30;;;;;;;4.13;2.30;;;13.50;99.90;;;;;;5075473;28;20944;-80
2023/04/29 01:10:07;;;;;;;5.95;2.60;;;13.40;99.90;;;;;;5075799;28;20422;-81
2023/04/29 01:12:53;;;;;;;3.47;2.58;;;13.50;99.90;;;;;;5057794;28;20398;-81
2023/04/29 01:15:30;;;;;;;4.90;2.80;;;13.40;99.90;;;;;;5057113;28;20763;-80
2023/04/29 01:18:11;;;;;;;5.07;2.70;;;13.50;99.90;;;;;;5075008;28;20388;-81
2023/04/29 01:20:37;;;;;;;9.02;3.17;;;13.40;99.90;;;;;;5076002;28;20833;-80
2023/04/29 01:23:03;;;;;;;6.90;3.00;;;13.40;99.90;;;;;;5057803;28;20416;-81
2023/04/29 01:25:29;;;;;;;3.00;2.67;;;13.40;99.90;;;;;;5076043;28;20387;-80
2023/04/29 01:28:05;;;;;;;3.70;2.70;;;13.40;99.90;;;;;;5057382;28;20445;-81
2023/04/29 01:30:39;;;;;;;4.80;3.00;;;13.30;99.90;;;;;;5074396;28;20392;-81
2023/04/29 01:33:38;;;;;;;5.22;2.58;;;13.30;99.90;;;;;;5075732;28;20388;-81
2023/04/29 01:36:25;;;;;;;3.40;2.55;;;13.30;99.90;;;;;;5056649;28;20422;-81
2023/04/29 01:39:12;;;;;;;3.08;2.70;;;13.20;99.90;;;;;;5057890;28;20418;-81
2023/04/29 01:41:57;;;;;;;3.00;2.80;;;13.20;99.90;;;;;;5076172;28;20403;-80
2023/04/29 01:44:26;;;;;;;4.60;2.60;;;13.30;99.90;;;;;;5057260;28;20384;-80
2023/04/29 01:46:53;;;;;;;3.53;2.60;;;13.20;99.90;;;;;;5056616;28;20392;-81
2023/04/29 01:49:26;;;;;;;4.60;2.60;;;13.20;99.90;;;;;;5075336;28;20408;-81
2023/04/29 01:51:52;;;;;;;2.53;2.33;;;13.20;99.90;;;;;;5075349;28;20419;-80
2023/04/29 01:54:17;;;;;;;2.60;2.40;;;13.20;99.90;;;;;;5057217;28;20371;-80
2023/04/29 01:56:43;;;;;;;3.03;2.70;;;13.20;99.90;;;;;;5074735;28;20387;-80
2023/04/29 01:59:09;;;;;;;4.20;2.47;;;13.30;99.90;;;;;;5056646;28;20873;-80
2023/04/29 02:01:35;;;;;;;4.07;2.88;;;13.30;99.90;;;;;;5075373;28;20388;-80
2023/04/29 02:04:01;;;;;;;2.60;2.40;;;13.30;99.90;;;;;;5074855;28;20399;-81
2023/04/29 02:06:27;;;;;;;2.70;2.38;;;13.30;99.90;;;;;;5056069;28;20388;-80
2023/04/29 02:08:52;;;;;;;4.05;2.67;;;13.30;99.90;;;;;;5074893;28;20566;-81
2023/04/29 02:11:18;;;;;;;5.00;3.10;;;13.30;99.90;;;;;;5074886;28;20824;-81
2023/04/29 02:13:43;;;;;;;2.77;2.57;;;13.30;99.90;;;;;;5075298;28;20797;-81
2023/04/29 02:16:10;;;;;;;2.80;2.50;;;13.40;99.90;;;;;;5066542;28;20783;-80
2023/04/29 02:18:39;;;;;;;4.45;2.75;;;13.40;99.90;;;;;;5077447;28;20385;-80
2023/04/29 02:21:05;;;;;;;2.75;2.50;;;13.30;99.90;;;;;;5058413;28;20885;-81
2023/04/29 02:23:31;;;;;;;2.50;2.30;;;13.30;99.90;;;;;;5075317;28;20608;-80
2023/04/29 02:25:56;;;;;;;5.70;2.70;;;13.30;99.90;;;;;;5077667;28;20709;-80
2023/04/29 02:28:22;;;;;;;2.85;2.40;;;13.30;99.90;;;;;;5084523;28;20384;-80
2023/04/29 02:30:48;;;;;;;3.95;2.33;;;13.30;99.90;;;;;;5084398;28;20451;-80
2023/04/29 02:33:15;;;;;;;3.17;2.50;;;13.20;99.90;;;;;;5081300;28;20384;-80
2023/04/29 02:35:40;;;;;;;3.25;2.47;;;13.20;99.90;;;;;;5065398;28;20406;-80
2023/04/29 02:38:06;;;;;;;4.15;2.53;;;13.20;99.90;;;;;;5076894;28;20384;-80
2023/04/29 02:40:32;;;;;;;2.42;2.20;;;13.20;99.90;;;;;;5074758;28;20391;-80
2023/04/29 02:42:57;;;;;;;3.20;2.30;;;13.20;99.90;;;;;;5056229;28;20431;-80
2023/04/29 02:45:23;;;;;;;3.80;2.47;;;13.20;99.90;;;;;;5074782;28;20395;-80
2023/04/29 02:47:48;;;;;;;2.58;2.38;;;13.20;99.90;;;;;;5055502;28;20391;-80
2023/04/29 02:50:14;;;;;;;3.60;2.80;;;13.10;99.90;;;;;;5073915;28;20487;-80
2023/04/29 02:52:40;;;;;;;3.80;2.70;;;13.10;99.90;;;;;;5074191;28;20449;-80
2023/04/29 02:55:06;;;;;;;2.53;2.10;;;13.00;99.90;;;;;;5074108;28;20379;-80
2023/04/29 02:57:32;;;;;;;2.40;2.20;;;13.00;99.90;;;;;;5073412;28;20380;-79
2023/04/29 02:59:58;;;;;;;3.33;2.53;;;13.00;99.90;;;;;;5055917;28;20966;-80
2023/04/29 03:02:23;;;;;;;2.60;2.40;;;12.90;99.90;;;;;;5055983;28;20388;-80
2023/04/29 03:04:49;;;;;;;2.85;2.33;;;12.90;99.90;;;;;;5073674;28;20384;-80
2023/04/29 03:07:16;;;;;;;4.90;2.60;;;13.00;99.90;;;;;;5073362;28;20482;-80
2023/04/29 03:09:41;;;;;;;3.10;2.60;;;12.90;99.90;;;;;;5055531;28;20442;-80
2023/04/29 03:12:07;;;;;;;2.60;2.40;;;12.90;99.90;;;;;;5073756;28;20761;-80
2023/04/29 03:14:32;;;;;;;3.17;2.40;;;12.90;99.90;;;;;;5077631;28;20380;-80
2023/04/29 03:16:58;;;;;;;2.93;2.30;;;12.90;99.90;;;;;;5084499;28;20404;-81
2023/04/29 03:19:24;;;;;;;4.10;2.53;;;12.90;99.90;;;;;;5064615;28;20388;-81
2023/04/29 03:21:50;;;;;;;2.88;2.40;;;12.90;99.90;;;;;;5064260;28;20376;-81
2023/04/29 03:24:15;;;;;;;3.33;2.53;;;12.90;99.90;;;;;;5062722;28;20387;-81
2023/04/29 03:26:41;;;;;;;2.60;2.40;;;12.90;99.90;;;;;;5079472;28;20415;-81
2023/04/29 03:29:07;;;;;;;2.97;2.60;;;12.90;99.90;;;;;;5061648;28;20410;-81
2023/04/29 03:31:33;;;;;;;3.45;3.15;;;12.90;99.90;;;;;;5079325;28;20380;-81
2023/04/29 03:33:59;;;;;;;3.70;2.78;;;12.90;99.90;;;;;;5079453;28;20409;-81
2023/04/29 03:36:24;;;;;;;2.70;2.50;;;12.90;99.90;;;;;;5061622;28;20431;-81
2023/04/29 03:38:50;;;;;;;3.30;3.00;;;12.90;99.90;;;;;;5081199;28;20384;-81
2023/04/29 03:41:16;;;;;;;2.90;2.70;;;12.90;99.90;;;;;;5080018;28;20388;-81
2023/04/29 03:43:43;;;;;;;2.90;2.60;;;12.90;99.90;;;;;;5060265;28;20395;-81
2023/04/29 03:46:08;;;;;;;3.03;2.60;;;12.90;99.90;;;;;;5059125;28;20745;-81
2023/04/29 03:48:35;;;;;;;4.80;2.58;;;12.90;99.90;;;;;;5078234;28;20375;-81
2023/04/29 03:51:01;;;;;;;3.95;2.45;;;12.90;99.90;;;;;;5078751;28;20413;-81
2023/04/29 03:53:26;;;;;;;2.90;2.40;;;12.90;99.90;;;;;;5060868;28;20917;-81
2023/04/29 03:55:52;;;;;;;4.33;2.57;;;12.80;99.90;;;;;;5059122;28;20777;-81
2023/04/29 03:58:17;;;;;;;3.00;2.10;;;12.80;99.90;;;;;;5059005;28;20394;-81
2023/04/29 04:00:43;;;;;;;2.58;2.20;;;12.80;99.90;;;;;;5059980;28;20558;-81
2023/04/29 04:03:08;;;;;;;5.70;2.30;;;12.80;99.90;;;;;;5059728;28;20901;-81
2023/04/29 04:05:34;;;;;;;3.10;2.40;;;12.80;99.90;;;;;;5076992;28;20379;-81
2023/04/29 04:08:00;;;;;;;3.00;2.70;;;12.70;99.90;;;;;;5078516;28;20387;-81
2023/04/29 04:10:27;;;;;;;3.70;2.65;;;12.70;99.90;;;;;;5079302;28;20470;-81
2023/04/29 04:12:52;;;;;;;3.00;2.20;;;12.70;99.90;;;;;;5076596;28;20417;-81
2023/04/29 04:15:18;;;;;;;4.85;2.88;;;12.70;99.90;;;;;;5076717;28;20388;-81
2023/04/29 04:17:43;;;;;;;4.17;2.60;;;12.70;99.90;;;;;;5060529;28;20853;-81
2023/04/29 04:20:10;;;;;;;2.67;2.47;;;12.70;99.90;;;;;;5059607;28;20399;-81
2023/04/29 04:22:36;;;;;;;3.42;2.25;;;12.80;99.90;;;;;;5076405;28;20455;-81
2023/04/29 04:25:03;;;;;;;6.53;2.67;;;12.80;99.90;;;;;;5058331;28;21093;-81
2023/04/29 04:27:29;;;;;;;3.60;2.40;;;12.80;99.90;;;;;;5065665;28;20433;-81
2023/04/29 04:29:54;;;;;;;5.65;2.80;;;12.80;99.90;;;;;;5083366;28;20410;-81
2023/04/29 04:32:23;;;;;;;3.63;2.40;;;12.80;99.90;;;;;;5058536;28;20396;-81
2023/04/29 04:34:49;;;;;;;2.60;2.40;;;12.80;99.90;;;;;;5077377;28;20422;-82
2023/04/29 04:37:15;;;;;;;2.92;2.63;;;12.80;99.90;;;;;;5077333;28;20384;-81
2023/04/29 04:39:40;;;;;;;3.00;2.70;;;12.80;99.90;;;;;;5077633;28;20394;-81
2023/04/29 04:42:06;;;;;;;3.80;3.10;;;12.90;99.90;;;;;;5059284;28;20388;-81
2023/04/29 04:44:32;;;;;;;3.90;2.25;;;12.90;99.90;;;;;;5058800;28;20400;-81
2023/04/29 04:47:00;;;;;;;3.38;3.00;;;13.00;99.90;;;;;;5075871;28;20399;-81
2023/04/29 04:49:26;;;;;;;3.83;2.30;;;12.90;99.90;;;;;;5057659;28;20457;-81
2023/04/29 04:51:51;;;;;;;2.42;2.22;;;13.00;99.90;;;;;;5058639;28;20831;-81
2023/04/29 04:54:17;;;;;;;2.50;2.30;;;13.00;99.90;;;;;;5058681;28;20419;-81
2023/04/29 04:56:42;;;;;;;4.07;2.30;;;13.00;99.90;;;;;;5057955;28;20773;-81
2023/04/29 04:59:08;;;;;;;2.73;2.30;;;13.00;99.90;;;;;;5058194;28;20391;-81
2023/04/29 05:01:34;;;;;;;4.20;2.70;;;13.00;99.90;;;;;;5059383;28;20723;-81
2023/04/29 05:03:59;;;;;;;3.70;2.80;;;13.00;99.90;;;;;;5076317;28;20462;-81
2023/04/29 05:06:25;;;;;;;2.50;2.20;;;13.00;99.90;;;;;;5082960;28;20390;-81
2023/04/29 05:08:51;;;;;;;2.40;2.20;;;13.10;99.90;;;;;;5086568;28;20949;-81
2023/04/29 05:11:17;;;;;;;2.00;1.90;;;13.20;99.90;;;;;;5080436;28;20388;-81
2023/04/29 05:13:43;;;;;;;5.32;3.42;;;13.20;99.90;;;;;;5066479;28;20403;-81
2023/04/29 05:16:09;;;;;;;2.50;2.28;;;13.20;99.90;;;;;;5084508;28;20904;-81
2023/04/29 05:18:34;;;;;;;3.30;2.40;;;13.20;99.90;;;;;;5061930;28;20392;-81
2023/04/29 05:21:00;;;;;;;2.60;2.20;;;13.20;99.90;;;;;;5061675;28;20885;-81
2023/04/29 05:23:26;;;;;;;3.10;2.80;;;13.20;99.90;;;;;;5060693;28;20453;-81
2023/04/29 05:25:52;;;;;;;2.75;2.55;;;13.30;99.90;;;;;;5078923;28;20430;-81
2023/04/29 05:28:18;;;;;;;3.43;2.60;;;13.40;99.90;;;;;;5080796;28;20788;-82
2023/04/29 05:30:44;;;;;;;2.33;2.13;;;13.50;99.90;;;;;;5079484;28;20402;-81
2023/04/29 05:33:10;;;;;;;4.10;2.70;;;13.50;99.90;;;;;;5078820;28;20839;-81
2023/04/29 05:35:36;;;;;;;3.20;2.60;;;13.60;99.90;;;;;;5060016;28;20375;-82
2023/04/29 05:38:01;;;;;;;2.80;2.47;;;13.70;99.90;;;;;;5061161;28;20408;-81
2023/04/29 05:40:27;;;;;;;4.20;2.80;;;13.80;99.90;;;;;;5059767;28;20380;-81
2023/04/29 05:42:53;;;;;;;3.30;2.60;;;14.00;99.90;;;;;;5076619;28;20478;-81
2023/04/29 05:45:18;;;;;;;4.32;3.10;;;14.10;99.90;;;;;;5058535;28;20392;-82
2023/04/29 05:47:44;;;;;;;3.65;3.30;;;14.10;99.90;;;;;;5076427;28;20742;-82
2023/04/29 05:50:10;;;;;;;5.10;3.40;;;14.00;99.90;;;;;;5059142;28;20411;-82
2023/04/29 05:52:36;;;;;;;4.38;3.80;;;14.00;99.90;;;;;;5077325;28;20471;-81
2023/04/29 05:55:01;;;;;;;4.20;3.80;;;14.00;99.90;;;;;;5075591;28;21125;-82
2023/04/29 05:57:27;;;;;;;4.77;3.60;;;14.00;99.90;;;;;;5070587;28;20399;-81
2023/04/29 05:59:54;;;;;;;3.70;3.40;;;14.00;99.90;;;;;;5063751;28;20388;-81
2023/04/29 06:02:19;;;;;;;3.88;3.58;;;14.10;99.90;;;;;;5059924;28;20402;-82
2023/04/29 06:04:46;;;;;;;3.90;3.50;;;14.20;99.90;;;;;;5078906;28;20388;-82
2023/04/29 06:07:12;;;;;;;4.30;3.20;;;14.10;99.90;;;;;;5076979;28;20392;-83
2023/04/29 06:09:38;;;;;;;3.30;3.10;;;14.20;99.90;;;;;;5078985;28;20958;-82
2023/04/29 06:12:04;;;;;;;3.20;2.90;;;14.20;99.90;;;;;;5058443;28;20430;-82
2023/04/29 06:14:29;;;;;;;2.80;2.60;;;14.10;99.90;;;;;;5078310;28;20437;-82
2023/04/29 06:16:55;;;;;;;4.37;3.00;;;14.10;99.90;;;;;;5076835;28;20781;-82
2023/04/29 06:19:20;;;;;;;4.00;2.70;;;14.10;99.90;;;;;;5068987;28;20400;-84
2023/04/29 06:21:46;;;;;;;3.90;2.90;;;14.20;99.90;;;;;;5059794;28;20442;-84
2023/04/29 06:24:11;;;;;;;3.87;2.70;;;14.10;99.90;;;;;;5057680;28;20467;-84
2023/04/29 06:26:37;;;;;;;4.10;3.03;;;14.10;99.90;;;;;;5058180;28;20480;-84
2023/04/29 06:29:02;;;;;;;2.90;2.70;;;14.20;99.90;;;;;;5058006;28;20388;-84
2023/04/29 06:31:28;;;;;;;3.30;3.00;;;14.30;99.90;;;;;;5057889;28;20430;-85
2023/04/29 06:33:53;;;;;;;2.90;2.60;;;14.30;99.90;;;;;;5060604;28;20387;-84
2023/04/29 06:36:19;;;;;;;4.13;2.47;;;14.50;99.90;;;;;;5059038;28;20376;-84
2023/04/29 06:38:45;;;;;;;2.30;2.10;;;14.40;99.90;;;;;;5075905;28;20387;-84
2023/04/29 06:41:10;;;;;;;2.50;2.30;;;14.50;99.90;;;;;;5076837;28;20412;-83
2023/04/29 06:43:36;;;;;;;2.90;1.85;;;14.50;99.90;;;;;;5075464;28;20454;-84
2023/04/29 06:46:02;;;;;;;3.00;1.90;;;14.40;99.90;;;;;;5058513;28;20957;-83
2023/04/29 06:48:27;;;;;;;2.00;1.90;;;14.50;99.90;;;;;;5058550;28;20479;-84
2023/04/29 06:50:55;;;;;;;1.80;1.60;;;14.40;99.90;;;;;;5071632;28;20403;-84
2023/04/29 06:53:21;;;;;;;2.30;1.60;;;14.50;99.90;;;;;;5056529;28;20478;-83
2023/04/29 06:55:47;;;;;;;1.50;1.40;;;14.40;99.90;;;;;;5058376;28;20522;-84
2023/04/29 06:58:13;;;;;;;2.00;1.60;;;14.40;99.90;;;;;;5057718;28;20422;-84
2023/04/29 07:00:39;;;;;;;1.80;1.50;;;14.40;99.90;;;;;;5058058;28;20387;-84
2023/04/29 07:03:05;;;;;;;1.60;1.50;;;14.50;99.90;;;;;;5075405;28;20395;-83
2023/04/29 07:05:31;;;;;;;1.60;1.50;;;14.60;99.90;;;;;;5057604;28;20475;-84
2023/04/29 07:07:57;;;;;;;2.15;1.80;;;14.50;99.90;;;;;;5070798;28;20428;-84
2023/04/29 07:10:22;;;;;;;1.70;1.60;;;14.60;99.90;;;;;;5087151;28;20399;-82
2023/04/29 07:12:48;;;;;;;1.90;1.60;;;14.70;99.90;;;;;;5062498;28;20478;-84
2023/04/29 07:15:13;;;;;;;1.90;1.80;;;14.70;99.90;;;;;;5058275;28;20470;-84
2023/04/29 07:17:39;;;;;;;3.30;1.77;;;14.60;99.90;;;;;;5058300;28;20765;-84
2023/04/29 07:20:05;;;;;;;4.40;2.30;;;14.70;99.90;;;;;;5060614;28;20964;-81
2023/04/29 07:22:31;;;;;;;2.00;1.90;;;14.70;99.90;;;;;;5083044;28;20463;-79
2023/04/29 07:24:56;;;;;;;2.60;1.97;;;14.60;99.90;;;;;;5079240;28;20416;-80
2023/04/29 07:27:22;;;;;;;3.90;1.90;;;14.50;99.90;;;;;;5076539;28;20908;-80
2023/04/29 07:29:48;;;;;;;2.80;2.03;;;14.50;99.90;;;;;;5074060;28;20488;-80
2023/04/29 07:32:14;;;;;;;2.20;1.90;;;14.60;99.90;;;;;;5064367;28;20396;-79
2023/04/29 07:34:40;;;;;;;2.30;2.10;;;14.50;99.90;;;;;;5078960;28;20764;-79
2023/04/29 07:37:05;;;;;;;1.80;1.70;;;14.50;99.90;;;;;;5077336;28;20380;-81
2023/04/29 07:39:31;;;;;;;1.90;1.80;;;14.60;99.90;;;;;;5077952;28;20379;-81
2023/04/29 07:41:58;;;;;;;2.45;1.90;;;14.70;99.90;;;;;;5054278;28;20886;-81
2023/04/29 07:44:24;;;;;;;2.15;1.75;;;14.80;99.90;;;;;;5054310;28;20395;-81
2023/04/29 07:46:49;;;;;;;1.70;1.60;;;14.80;99.90;;;;;;5079307;28;20866;-81
2023/04/29 07:49:15;;;;;;;1.90;1.80;;;14.90;99.90;;;;;;5063929;28;20407;-80
2023/04/29 07:51:41;;;;;;;1.63;1.52;;;15.00;99.90;;;;;;5063122;28;20388;-81
2023/04/29 07:54:07;;;;;;;1.80;1.70;;;15.00;99.90;;;;;;5077550;28;20376;-80
2023/04/29 07:56:32;;;;;;;4.50;2.55;;;15.10;99.90;;;;;;5047844;28;20400;-79
2023/04/29 07:59:01;;;;;;;2.70;2.10;;;14.90;99.90;;;;;;5060023;28;20479;-80
2023/04/29 08:01:30;;;;;;;2.13;1.92;;;14.90;99.90;;;;;;5067035;28;20388;-80
2023/04/29 08:03:55;;;;;;;2.40;2.20;;;14.90;99.90;;;;;;5071094;28;20387;-80
2023/04/29 08:06:21;;;;;;;2.03;1.83;;;15.00;99.90;;;;;;5056934;28;20392;-81
2023/04/29 08:08:48;;;;;;;2.53;2.33;;;15.10;99.90;;;;;;5055013;28;20384;-81
2023/04/29 08:11:17;;;;;;;2.97;2.20;;;15.10;99.90;;;;;;5051522;28;20789;-80
2023/04/29 08:13:43;;;;;;;2.58;2.38;;;15.00;99.90;;;;;;5068149;28;20404;-78
2023/04/29 08:16:10;;;;;;;3.10;2.50;;;14.90;99.90;;;;;;5055292;28;20420;-80
2023/04/29 08:18:35;;;;;;;1.90;1.77;;;15.00;99.90;;;;;;5072930;28;20410;-80
2023/04/29 08:21:01;;;;;;;2.50;2.20;;;15.20;99.90;;;;;;5067937;28;20471;-79
2023/04/29 08:23:27;;;;;;;3.50;2.40;;;15.30;99.90;;;;;;5074690;28;20382;-80
2023/04/29 08:25:54;;;;;;;3.10;2.20;;;15.50;99.90;;;;;;5067198;28;20384;-80
2023/04/29 08:28:20;;;;;;;2.30;2.10;;;15.50;99.90;;;;;;5075528;28;20380;-80
2023/04/29 08:30:46;;;;;;;2.20;2.00;;;15.50;99.90;;;;;;5074506;28;20395;-80
2023/04/29 08:33:11;;;;;;;2.60;2.10;;;15.70;99.90;;;;;;5074665;28;20388;-79
2023/04/29 08:35:37;;;;;;;2.30;2.10;;;15.70;99.90;;;;;;5055397;28;20958;-80
2023/04/29 08:38:05;;;;;;;2.30;2.10;;;15.80;99.90;;;;;;5074200;28;20415;-81
2023/04/29 08:40:33;;;;;;;1.90;1.80;;;15.70;99.90;;;;;;5074000;28;20466;-81
2023/04/29 08:42:59;;;;;;;2.10;1.90;;;15.90;99.90;;;;;;5055109;28;20478;-82
2023/04/29 08:45:27;;;;;;;2.17;1.88;;;15.70;99.90;;;;;;5056513;28;20380;-79
2023/04/29 08:47:55;;;;;;;2.10;2.00;;;15.40;99.90;;;;;;5077851;28;20900;-80
2023/04/29 08:50:21;;;;;;;2.03;1.83;;;15.50;99.90;;;;;;5077132;28;20455;-81
2023/04/29 08:52:48;;;;;;;2.20;2.00;;;15.70;99.90;;;;;;5074491;28;20398;-80
2023/04/29 08:55:13;;;;;;;2.63;1.80;;;15.70;98.90;;;;;;5083787;28;20445;-80
2023/04/29 08:57:42;;;;;;;2.50;2.00;;;15.90;99.90;;;;;;5067583;28;20459;-82
2023/04/29 09:00:12;;;;;;;2.67;2.10;;;15.60;99.90;;;;;;5086601;28;20464;-81
2023/04/29 09:02:49;;;;;;;2.47;2.28;;;15.70;99.90;;;;;;5064564;28;20475;-80
2023/04/29 09:05:15;;;;;;;2.80;1.90;;;15.70;99.90;;;;;;5084536;28;20379;-81
2023/04/29 09:07:41;;;;;;;4.37;2.30;;;15.90;99.90;;;;;;5073323;28;20395;-80
2023/04/29 09:10:07;;;;;;;2.00;1.90;;;16.00;99.90;;;;;;5072631;28;20407;-81
2023/04/29 09:12:33;;;;;;;2.47;2.00;;;16.10;96.20;;;;;;5086538;28;20407;-81
2023/04/29 09:14:58;;;;;;;1.90;1.80;;;15.80;99.90;;;;;;5063151;28;20388;-84
2023/04/29 09:17:43;;;;;;;2.00;1.60;;;15.80;99.90;;;;;;5101076;22;20458;-85
2023/04/29 09:20:29;;;;;;;3.00;2.20;;;15.90;99.90;;;;;;5110796;28;20412;-84
2023/04/29 09:22:57;;;;;;;2.10;1.90;;;16.20;99.90;;;;;;5118017;28;20384;-85
2023/04/29 09:25:23;;;;;;;2.47;2.25;;;16.00;99.90;;;;;;5095815;28;20380;-84
2023/04/29 09:27:49;;;;;;;2.55;2.03;;;16.20;99.90;;;;;;5104155;28;20893;-85
2023/04/29 09:30:15;;;;;;;2.60;2.30;;;16.30;99.90;;;;;;5107840;28;20439;-85
2023/04/29 09:32:42;;;;;;;3.10;2.40;;;15.90;99.90;;;;;;5087519;28;20421;-85
2023/04/29 09:35:25;;;;;;;2.70;2.00;;;15.90;99.90;;;;;;5100527;28;20403;-86
2023/04/29 09:37:54;;;;;;;3.00;2.60;;;16.10;99.90;;;;;;5120547;28;20399;-86
2023/04/29 09:40:33;;;;;;;2.90;2.20;;;16.10;99.90;;;;;;5101193;28;20388;-86
2023/04/29 09:42:59;;;;;;;2.63;2.42;;;16.20;99.90;;;;;;5102088;28;20423;-84
2023/04/29 09:45:51;;;;;;;2.67;2.33;;;16.30;99.90;;;;;;5090941;28;20952;-84
2023/04/29 09:48:17;;;;;;;3.53;2.20;;;16.40;99.90;;;;;;5077273;28;20386;-84
2023/04/29 09:50:43;;;;;;;2.80;2.40;;;16.60;99.90;;;;;;5081224;28;20443;-84
2023/04/29 09:53:10;;;;;;;3.45;2.90;;;16.70;99.90;;;;;;5083452;28;20904;-84
2023/04/29 09:55:58;;;;;;;2.45;2.25;;;16.90;99.90;;;;;;5099415;28;20405;-85
2023/04/29 09:58:29;;;;;;;3.50;2.50;;;16.80;99.90;;;;;;5098916;28;20786;-86
2023/04/29 10:00:59;;;;;;;3.42;2.30;;;16.80;97.90;;;;;;5099975;28;20888;-85
2023/04/29 10:03:31;;;;;;;2.95;2.00;;;17.00;99.90;;;;;;5081454;28;20764;-85
2023/04/29 10:05:57;;;;;;;2.35;2.10;;;17.00;99.90;;;;;;5092379;28;20910;-85
2023/04/29 10:08:23;;;;;;;3.80;2.60;;;17.10;99.90;;;;;;5119377;28;20699;-85
2023/04/29 10:10:56;;;;;;;3.67;2.30;;;17.20;99.90;;;;;;5103633;28;20478;-85
2023/04/29 10:13:23;;;;;;;2.28;2.08;;;16.90;99.90;;;;;;5102227;28;20381;-86
2023/04/29 10:16:01;;;;;;;2.15;2.00;;;16.90;99.90;;;;;;5119069;28;20412;-85
2023/04/29 10:18:37;;;;;;;4.72;2.30;;;17.00;99.90;;;;;;5114795;28;20392;-84
2023/04/29 10:21:06;;;;;;;2.10;1.90;;;17.10;99.90;;;;;;5098122;28;20389;-84
2023/04/29 10:23:32;;;;;;;2.20;2.10;;;17.10;99.90;;;;;;5093342;28;20431;-84
2023/04/29 10:26:02;;;;;;;3.17;2.30;;;17.20;99.90;;;;;;5106832;28;20903;-83
2023/04/29 10:28:31;;;;;;;2.20;2.10;;;17.30;98.10;;;;;;5081119;28;20390;-84
2023/04/29 10:31:03;;;;;;;2.00;1.80;;;17.70;56.70;;;;;;5101793;28;20392;-84
2023/04/29 10:33:32;;;;;;;2.80;2.60;;;17.70;50.80;;;;;;5120410;28;20412;-84
2023/04/29 10:35:59;;;;;;;2.80;2.60;;;17.50;49.30;;;;;;5118887;28;20389;-84
2023/04/29 10:38:33;;;;;;;2.60;2.40;;;17.50;50.60;;;;;;5099988;28;20850;-83
2023/04/29 10:41:07;;;;;;;2.47;2.22;;;17.80;52.90;;;;;;5089497;28;20390;-84
2023/04/29 10:43:32;;;;;;;2.00;1.90;;;17.40;55.90;;;;;;5094581;28;20399;-85
2023/04/29 10:46:16;;;;;;;2.40;2.20;;;17.80;92.80;;;;;;5095005;28;20388;-84
2023/04/29 10:48:51;;;;;;;2.03;1.92;;;18.00;44.50;;;;;;5108464;28;20450;-84
2023/04/29 10:51:34;;;;;;;2.55;2.05;;;18.30;46.10;;;;;;5094984;28;20407;-84
2023/04/29 10:54:02;;;;;;;2.40;2.20;;;18.70;34.90;;;;;;5088177;28;20396;-84
2023/04/29 10:56:40;;;;;;;2.00;1.80;;;18.00;39.30;;;;;;5098228;28;20377;-83
2023/04/29 10:59:13;;;;;;;2.33;2.10;;;17.90;44.80;;;;;;5107244;28;20452;-84
2023/04/29 11:01:40;;;;;;;2.23;2.03;;;17.90;43.10;;;;;;5087474;28;20409;-84
2023/04/29 11:04:05;;;;;;;2.38;1.80;;;18.50;40.00;;;;;;5111203;28;20376;-84
2023/04/29 11:06:34;;;;;;;2.70;2.50;;;18.90;37.20;;;;;;5079192;28;20906;-84
2023/04/29 11:09:06;;;;;;;3.00;2.60;;;18.60;34.40;;;;;;5091293;28;20443;-84
2023/04/29 11:11:59;;;;;;;2.55;2.20;;;18.30;25.30;;;;;;5086244;28;20393;-87
2023/04/29 11:14:31;;;;;;;2.20;2.00;;;18.00;30.40;;;;;;5081896;28;20435;-84
2023/04/29 11:17:02;;;;;;;2.90;2.00;;;18.10;31.20;;;;;;5083382;28;20454;-84
2023/04/29 11:19:45;;;;;;;3.50;2.20;;;18.50;45.30;;;;;;5106298;28;20394;-85
2023/04/29 11:22:10;;;;;;;2.40;2.30;;;19.00;42.70;;;;;;5101520;28;20390;-84
2023/04/29 11:24:46;;;;;;;2.50;2.30;;;18.30;33.00;;;;;;5097740;28;20382;-85
2023/04/29 11:27:14;;;;;;;2.10;1.90;;;18.00;41.50;;;;;;5091430;28;20389;-86
2023/04/29 11:29:40;;;;;;;2.10;2.00;;;18.30;33.80;;;;;;5104658;28;20525;-86
2023/04/29 11:32:07;;;;;;;2.67;2.00;;;18.70;29.80;;;;;;5083954;28;20382;-85
2023/04/29 11:34:32;;;;;;;2.83;2.30;;;18.50;23.90;;;;;;5092848;28;20908;-86
2023/04/29 11:36:59;;;;;;;1.93;1.83;;;18.50;28.70;;;;;;5096812;28;20390;-85
2023/04/29 11:39:25;;;;;;;2.95;2.50;;;18.60;24.10;;;;;;5087000;28;20395;-84
2023/04/29 11:41:51;;;;;;;2.38;2.17;;;18.70;18.90;;;;;;5087576;28;20425;-86
2023/04/29 11:44:21;;;;;;;2.95;2.40;;;19.90;17.20;;;;;;5112709;28;20758;-85
2023/04/29 11:46:48;;;;;;;5.00;2.30;;;20.20;7.50;;;;;;5090327;28;20510;-85
2023/04/29 11:49:14;;;;;;;2.63;2.42;;;21.40;4.40;;;;;;5077734;28;20443;-86
2023/04/29 11:51:39;;;;;;;2.30;2.10;;;21.50;4.90;;;;;;5094694;28;20378;-86
2023/04/29 11:54:06;;;;;;;2.60;2.40;;;22.00;3.00;;;;;;5094779;28;20397;-87
2023/04/29 11:56:31;;;;;;;2.25;2.03;;;22.00;1.00;;;;;;5090535;28;20391;-85
2023/04/29 11:58:57;;;;;;;2.00;1.90;;;22.20;1.00;;;;;;5098711;28;20370;-85
2023/04/29 12:01:25;;;;;;;3.53;1.70;;;21.60;1.00;;;;;;5078685;28;20386;-86
2023/04/29 12:03:56;;;;;;;3.47;2.40;;;21.50;2.70;;;;;;5115829;28;20394;-86
2023/04/29 12:06:25;;;;;;;2.20;2.00;;;21.60;3.40;;;;;;5087560;28;20376;-86
2023/04/29 12:08:51;;;;;;;1.90;1.80;;;21.50;1.00;;;;;;5098833;28;20479;-85
2023/04/29 12:11:16;;;;;;;2.03;1.92;;;22.00;1.00;;;;;;5096775;28;20384;-84
2023/04/29 12:13:42;;;;;;;2.40;1.70;;;22.30;1.00;;;;;;5095540;28;20931;-86
2023/04/29 12:16:09;;;;;;;1.80;1.70;;;22.30;1.00;;;;;;5096933;28;20380;-85
2023/04/29 12:18:35;;;;;;;2.30;2.10;;;22.50;1.00;;;;;;5098891;28;20400;-85
2023/04/29 12:21:00;;;;;;;2.50;2.40;;;21.20;1.00;;;;;;5100551;28;20411;-85
2023/04/29 12:23:27;;;;;;;2.88;1.83;;;19.70;1.00;;;;;;5130345;28;20372;-84
2023/04/29 12:25:55;;;;;;;2.00;1.80;;;19.80;1.00;;;;;;5120416;28;20387;-85
2023/04/29 12:28:21;;;;;;;1.88;1.77;;;19.60;5.90;;;;;;5114161;28;20373;-84
2023/04/29 12:30:49;;;;;;;1.80;1.70;;;20.90;1.00;;;;;;5103944;28;20384;-81
2023/04/29 12:33:23;;;;;;;2.00;1.77;;;21.00;1.00;;;;;;5123777;28;20467;-81
2023/04/29 12:35:50;;;;;;;1.90;1.80;;;20.90;1.00;;;;;;5123121;28;20742;-81
2023/04/29 12:38:23;;;;;;;2.00;1.90;;;20.60;1.20;;;;;;5124666;28;20376;-80
2023/04/29 12:40:49;;;;;;;3.70;1.63;;;20.40;1.00;;;;;;5123697;28;20482;-80
2023/04/29 12:43:15;;;;;;;2.30;1.77;;;20.30;1.00;;;;;;5124004;28;20727;-80
2023/04/29 12:45:41;;;;;;;1.90;1.80;;;20.30;1.00;;;;;;5105614;28;20387;-81
2023/04/29 12:48:07;;;;;;;2.15;1.80;;;20.50;1.00;;;;;;5120980;28;20380;-81
2023/04/29 12:50:35;;;;;;;2.10;1.60;;;20.00;1.80;;;;;;5122717;28;20384;-79